createdAt,value
2017-12-21T00:01:17.819Z,36.70
2017-12-21T00:03:45.259Z,45.50
2017-12-21T00:06:12.738Z,52.60
2017-12-21T00:08:40.148Z,36.30
2017-12-21T00:11:07.595Z,47.70
2017-12-21T00:13:35.107Z,43.87
2017-12-21T00:16:02.545Z,37.90
2017-12-21T00:18:29.995Z,48.67
2017-12-21T00:20:57.413Z,38.30
2017-12-21T00:23:24.823Z,29.13
2017-12-21T00:25:52.273Z,35.47
2017-12-21T00:28:19.684Z,64.57
2017-12-21T00:30:47.184Z,26.73
2017-12-21T00:33:14.636Z,33.53
2017-12-21T00:35:42.120Z,20.30
2017-12-21T00:38:09.536Z,32.90
2017-12-21T00:40:36.960Z,31.57
2017-12-21T00:43:04.396Z,26.37
2017-12-21T00:45:31.839Z,25.93
2017-12-21T00:47:59.251Z,26.33
2017-12-21T00:50:26.703Z,28.77
2017-12-21T00:52:54.314Z,27.07
2017-12-21T00:55:21.726Z,28.53
2017-12-21T00:57:49.160Z,24.73
2017-12-21T01:00:16.575Z,20.77
2017-12-21T01:02:43.992Z,22.00
2017-12-21T01:05:11.495Z,23.97
2017-12-21T01:07:38.941Z,30.87
2017-12-21T01:10:06.351Z,23.33
2017-12-21T01:12:33.791Z,27.80
2017-12-21T01:15:01.203Z,21.07
2017-12-21T01:17:28.648Z,23.93
2017-12-21T01:19:56.108Z,21.33
2017-12-21T01:22:23.519Z,24.23
2017-12-21T01:24:50.931Z,19.80
2017-12-21T01:27:18.403Z,22.57
2017-12-21T01:29:45.816Z,22.47
2017-12-21T01:32:13.301Z,23.30
2017-12-21T01:34:40.731Z,22.37
2017-12-21T01:37:08.143Z,26.40
2017-12-21T01:39:35.565Z,22.10
2017-12-21T01:42:03.041Z,22.73
2017-12-21T01:44:30.471Z,17.30
2017-12-21T01:46:57.883Z,21.57
2017-12-21T01:49:25.386Z,19.13
2017-12-21T01:51:52.859Z,21.13
2017-12-21T01:54:20.280Z,23.57
2017-12-21T01:56:47.780Z,24.70
2017-12-21T01:59:15.240Z,23.87
2017-12-21T02:01:42.650Z,19.40
2017-12-21T02:04:10.067Z,19.70
2017-12-21T02:06:37.508Z,16.20
2017-12-21T02:09:04.925Z,24.30
2017-12-21T02:11:32.331Z,20.03
2017-12-21T02:13:59.771Z,18.03
2017-12-21T02:16:27.177Z,19.33
2017-12-21T02:18:54.688Z,17.17
2017-12-21T02:21:22.146Z,21.03
2017-12-21T02:23:49.574Z,13.27
2017-12-21T02:26:16.972Z,13.80
2017-12-21T02:28:44.415Z,15.13
2017-12-21T02:31:11.828Z,13.70
2017-12-21T02:33:39.231Z,14.30
2017-12-21T02:36:06.684Z,13.50
2017-12-21T02:38:34.102Z,11.07
2017-12-21T02:41:01.508Z,11.90
2017-12-21T02:43:28.947Z,15.87
2017-12-21T02:45:56.395Z,12.27
2017-12-21T02:48:23.869Z,8.87
2017-12-21T02:50:51.284Z,10.80
2017-12-21T02:53:18.732Z,10.20
2017-12-21T02:55:46.136Z,10.13
2017-12-21T02:58:13.540Z,8.60
2017-12-21T03:00:40.996Z,12.20
2017-12-21T03:03:08.400Z,8.90
2017-12-21T03:05:35.815Z,12.53
2017-12-21T03:08:03.305Z,8.27
2017-12-21T03:10:30.698Z,11.13
2017-12-21T03:13:03.147Z,9.20
2017-12-21T03:15:30.559Z,10.40
2017-12-21T03:17:57.969Z,7.60
2017-12-21T03:20:25.396Z,9.60
2017-12-21T03:22:52.858Z,8.37
2017-12-21T03:25:20.255Z,8.60
2017-12-21T03:27:47.716Z,9.33
2017-12-21T03:30:15.121Z,10.43
2017-12-21T03:32:42.523Z,8.53
2017-12-21T03:35:09.947Z,10.00
2017-12-21T03:37:37.367Z,15.90
2017-12-21T03:40:04.785Z,12.53
2017-12-21T03:42:32.232Z,8.83
2017-12-21T03:44:59.631Z,10.63
2017-12-21T03:47:27.053Z,16.03
2017-12-21T03:49:54.476Z,9.67
2017-12-21T03:52:21.884Z,10.77
2017-12-21T03:54:49.287Z,11.13
2017-12-21T03:57:16.703Z,9.90
2017-12-21T03:59:44.154Z,11.07
2017-12-21T04:02:11.666Z,14.23
2017-12-21T04:04:39.087Z,9.50
2017-12-21T04:07:06.683Z,11.10
2017-12-21T04:09:34.153Z,15.87
2017-12-21T04:12:01.600Z,13.03
2017-12-21T04:14:29.024Z,12.33
2017-12-21T04:16:56.432Z,14.70
2017-12-21T04:19:23.876Z,15.80
2017-12-21T04:21:51.283Z,12.63
2017-12-21T04:24:18.705Z,16.00
2017-12-21T04:26:46.222Z,15.37
2017-12-21T04:29:13.622Z,15.93
2017-12-21T04:31:41.067Z,13.03
2017-12-21T04:34:08.512Z,15.73
2017-12-21T04:36:35.915Z,13.97
2017-12-21T04:39:03.315Z,15.43
2017-12-21T04:41:30.754Z,15.97
2017-12-21T04:43:58.174Z,10.53
2017-12-21T04:46:25.696Z,16.70
2017-12-21T04:48:53.147Z,10.70
2017-12-21T04:51:20.554Z,11.30
2017-12-21T04:53:47.971Z,14.20
2017-12-21T04:56:15.507Z,10.77
2017-12-21T04:58:42.936Z,11.20
2017-12-21T05:01:10.427Z,19.03
2017-12-21T05:03:37.889Z,13.07
2017-12-21T05:06:05.300Z,15.80
2017-12-21T05:08:32.893Z,10.70
2017-12-21T05:11:00.333Z,12.60
2017-12-21T05:13:27.819Z,15.80
2017-12-21T05:15:55.268Z,16.10
2017-12-21T05:18:22.825Z,14.43
2017-12-21T05:20:50.219Z,14.73
2017-12-21T05:23:17.739Z,17.70
2017-12-21T05:25:45.245Z,14.70
2017-12-21T05:28:12.601Z,12.30
2017-12-21T05:30:40.017Z,12.60
2017-12-21T05:33:07.456Z,11.03
2017-12-21T05:35:34.862Z,17.93
2017-12-21T05:38:02.295Z,21.20
2017-12-21T05:40:29.736Z,11.87
2017-12-21T05:42:57.143Z,17.10
2017-12-21T05:45:24.552Z,14.20
2017-12-21T05:47:51.984Z,15.23
2017-12-21T05:50:19.458Z,22.67
2017-12-21T05:52:46.899Z,17.97
2017-12-21T05:55:14.311Z,12.67
2017-12-21T05:57:41.736Z,16.40
2017-12-21T06:00:09.179Z,19.40
2017-12-21T06:02:36.612Z,15.67
2017-12-21T06:05:04.111Z,16.93
2017-12-21T06:07:31.551Z,17.97
2017-12-21T06:09:58.956Z,14.60
2017-12-21T06:12:26.376Z,16.70
2017-12-21T06:14:53.828Z,14.97
2017-12-21T06:17:21.251Z,18.83
2017-12-21T06:19:48.668Z,18.57
2017-12-21T06:22:16.103Z,14.30
2017-12-21T06:24:43.575Z,15.33
2017-12-21T06:27:10.987Z,15.13
2017-12-21T06:29:38.461Z,14.80
2017-12-21T06:32:05.876Z,12.23
2017-12-21T06:34:33.270Z,17.67
2017-12-21T06:37:00.707Z,18.17
2017-12-21T06:39:28.185Z,13.97
2017-12-21T06:41:55.641Z,21.13
2017-12-21T06:44:23.054Z,21.73
2017-12-21T06:46:50.460Z,12.47
2017-12-21T06:49:17.897Z,14.07
2017-12-21T06:51:45.307Z,17.87
2017-12-21T06:54:12.749Z,16.60
2017-12-21T06:56:40.184Z,18.93
2017-12-21T06:59:07.607Z,20.27
2017-12-21T07:01:35.108Z,27.03
2017-12-21T07:04:02.544Z,59.70
2017-12-21T07:06:29.984Z,23.80
2017-12-21T07:08:57.474Z,22.47
2017-12-21T07:11:24.927Z,19.97
2017-12-21T07:13:52.380Z,20.07
2017-12-21T07:16:19.783Z,10.93
2017-12-21T07:18:47.228Z,15.70
2017-12-21T07:21:14.665Z,13.77
2017-12-21T07:23:42.072Z,13.53
2017-12-21T07:26:09.611Z,11.10
2017-12-21T07:28:37.032Z,14.63
2017-12-21T07:31:04.444Z,14.80
2017-12-21T07:33:31.952Z,15.57
2017-12-21T07:35:59.411Z,16.07
2017-12-21T07:38:26.839Z,14.17
2017-12-21T07:40:54.264Z,12.23
2017-12-21T07:43:21.704Z,13.67
2017-12-21T07:45:49.122Z,14.33
2017-12-21T07:48:16.534Z,14.80
2017-12-21T07:50:43.985Z,14.83
2017-12-21T07:53:11.408Z,14.97
2017-12-21T07:55:38.824Z,13.37
2017-12-21T07:58:06.288Z,12.37
2017-12-21T08:00:33.691Z,14.80
2017-12-21T08:03:01.118Z,16.90
2017-12-21T08:05:28.557Z,13.23
2017-12-21T08:07:56.557Z,12.70
2017-12-21T08:10:24.011Z,12.37
2017-12-21T08:12:51.468Z,12.03
2017-12-21T08:15:18.885Z,20.93
2017-12-21T08:17:46.315Z,11.50
2017-12-21T08:20:13.764Z,16.33
2017-12-21T08:22:41.179Z,13.90
2017-12-21T08:25:08.628Z,10.43
2017-12-21T08:27:36.079Z,13.17
2017-12-21T08:30:03.497Z,9.90
2017-12-21T08:32:30.930Z,15.40
2017-12-21T08:34:58.384Z,20.93
2017-12-21T08:37:25.848Z,10.90
2017-12-21T08:39:53.265Z,13.80
2017-12-21T08:42:20.773Z,23.13
2017-12-21T08:44:48.188Z,13.90
2017-12-21T08:47:15.592Z,20.77
2017-12-21T08:49:43.019Z,19.17
2017-12-21T08:52:10.443Z,15.87
2017-12-21T08:54:37.866Z,14.77
2017-12-21T08:57:05.280Z,14.40
2017-12-21T08:59:32.844Z,12.20
2017-12-21T09:02:00.238Z,18.47
2017-12-21T09:04:27.656Z,15.97
2017-12-21T09:06:55.233Z,16.20
2017-12-21T09:09:22.680Z,15.80
2017-12-21T09:11:50.111Z,16.17
2017-12-21T09:14:17.560Z,10.03
2017-12-21T09:16:45.004Z,13.47
2017-12-21T09:19:12.424Z,11.80
2017-12-21T09:21:39.882Z,13.17
2017-12-21T09:24:07.293Z,11.47
2017-12-21T09:26:34.711Z,20.37
2017-12-21T09:29:02.163Z,30.60
2017-12-21T09:31:29.639Z,8.33
2017-12-21T09:33:57.043Z,11.53
2017-12-21T09:36:24.532Z,15.37
2017-12-21T09:38:51.956Z,14.63
2017-12-21T09:41:19.371Z,14.70
2017-12-21T09:43:46.822Z,13.80
2017-12-21T09:46:14.251Z,9.40
2017-12-21T09:48:41.668Z,11.20
2017-12-21T09:51:09.086Z,11.90
2017-12-21T09:53:36.518Z,11.03
2017-12-21T09:56:03.935Z,15.37
2017-12-21T10:01:05.116Z,13.93
2017-12-21T10:03:32.573Z,10.20
2017-12-21T10:06:00.067Z,17.93
2017-12-21T10:08:27.512Z,11.83
2017-12-21T10:10:54.996Z,14.70
2017-12-21T10:13:22.402Z,12.40
2017-12-21T10:15:49.870Z,14.10
2017-12-21T10:18:17.290Z,13.57
2017-12-21T10:20:44.718Z,13.93
2017-12-21T10:23:12.186Z,13.70
2017-12-21T10:25:39.602Z,16.00
2017-12-21T10:28:07.037Z,12.07
2017-12-21T10:30:34.470Z,11.97
2017-12-21T10:33:01.876Z,11.97
2017-12-21T10:35:29.324Z,15.80
2017-12-21T10:37:56.749Z,11.10
2017-12-21T10:40:24.177Z,10.90
2017-12-21T10:42:51.599Z,10.40
2017-12-21T10:45:19.034Z,10.90
2017-12-21T10:47:46.488Z,11.63
2017-12-21T10:50:13.901Z,13.57
2017-12-21T10:52:41.313Z,11.87
2017-12-21T10:55:08.735Z,11.90
2017-12-21T10:57:36.146Z,12.10
2017-12-21T11:00:03.561Z,13.47
2017-12-21T11:02:31.043Z,12.67
2017-12-21T11:04:58.462Z,13.63
2017-12-21T11:07:25.895Z,16.07
2017-12-21T11:09:53.300Z,13.13
2017-12-21T11:12:20.727Z,12.83
2017-12-21T11:14:48.260Z,17.03
2017-12-21T11:17:15.666Z,15.57
2017-12-21T11:19:43.076Z,15.77
2017-12-21T11:22:10.511Z,17.37
2017-12-21T11:24:37.924Z,19.60
2017-12-21T11:27:05.367Z,16.10
2017-12-21T11:29:32.784Z,12.70
2017-12-21T11:32:00.206Z,13.90
2017-12-21T11:34:27.624Z,14.50
2017-12-21T11:36:55.136Z,13.80
2017-12-21T11:39:22.578Z,14.80
2017-12-21T11:41:49.975Z,11.67
2017-12-21T11:44:17.410Z,12.90
2017-12-21T11:46:44.819Z,13.07
2017-12-21T11:49:12.330Z,15.00
2017-12-21T11:51:39.768Z,13.60
2017-12-21T11:54:07.173Z,16.77
2017-12-21T11:56:34.594Z,12.20
2017-12-21T11:59:02.059Z,18.00
2017-12-21T12:01:29.471Z,16.07
2017-12-21T12:03:56.891Z,16.47
2017-12-21T12:06:24.325Z,13.50
2017-12-21T12:08:51.769Z,15.90
2017-12-21T12:11:19.190Z,14.60
2017-12-21T12:13:46.609Z,11.67
2017-12-21T12:16:14.063Z,9.93
2017-12-21T12:18:41.511Z,12.07
2017-12-21T12:21:08.924Z,15.37
2017-12-21T12:23:36.383Z,12.97
2017-12-21T12:26:03.856Z,16.80
2017-12-21T12:28:31.250Z,12.33
2017-12-21T12:30:58.680Z,12.77
2017-12-21T12:33:26.124Z,15.47
2017-12-21T12:35:53.552Z,16.97
2017-12-21T12:38:20.964Z,13.70
2017-12-21T12:40:48.417Z,15.67
2017-12-21T12:43:15.835Z,15.13
2017-12-21T12:45:43.320Z,21.33
2017-12-21T12:48:10.764Z,18.03
2017-12-21T12:50:38.203Z,16.30
2017-12-21T12:53:05.611Z,18.00
2017-12-21T12:55:33.142Z,14.97
2017-12-21T12:58:00.604Z,15.73
2017-12-21T13:00:28.019Z,12.20
2017-12-21T13:02:55.471Z,14.50
2017-12-21T13:05:22.896Z,12.47
2017-12-21T13:07:50.332Z,16.00
2017-12-21T13:10:17.766Z,16.80
2017-12-21T13:12:45.186Z,16.77
2017-12-21T13:15:12.600Z,13.70
2017-12-21T13:17:40.024Z,13.27
2017-12-21T13:20:07.443Z,18.50
2017-12-21T13:22:34.876Z,15.80
2017-12-21T13:25:02.286Z,15.10
2017-12-21T13:27:29.704Z,15.20
2017-12-21T13:29:57.153Z,14.80
2017-12-21T13:32:24.593Z,16.70
2017-12-21T13:34:52.008Z,16.20
2017-12-21T13:37:19.459Z,16.47
2017-12-21T13:39:46.880Z,11.07
2017-12-21T13:42:14.299Z,19.70
2017-12-21T13:44:41.728Z,16.60
2017-12-21T13:47:09.139Z,19.03
2017-12-21T13:49:36.584Z,32.33
2017-12-21T13:52:04.042Z,19.90
2017-12-21T13:54:31.469Z,20.10
2017-12-21T13:56:58.951Z,22.30
2017-12-21T13:59:26.371Z,21.10
2017-12-21T14:01:53.799Z,18.77
2017-12-21T14:04:21.229Z,19.60
2017-12-21T14:06:48.646Z,23.43
2017-12-21T14:09:16.069Z,14.87
2017-12-21T14:11:43.503Z,20.27
2017-12-21T14:14:10.940Z,16.97
2017-12-21T14:16:38.366Z,15.60
2017-12-21T14:19:05.809Z,17.40
2017-12-21T14:21:33.235Z,25.03
2017-12-21T14:24:00.681Z,14.67
2017-12-21T14:26:28.092Z,18.40
2017-12-21T14:28:56.416Z,23.07
2017-12-21T14:31:23.856Z,23.37
2017-12-21T14:33:51.263Z,17.30
2017-12-21T14:36:18.677Z,20.20
2017-12-21T14:38:46.136Z,19.20
2017-12-21T14:41:13.543Z,16.13
2017-12-21T14:43:40.955Z,19.37
2017-12-21T14:46:08.404Z,16.97
2017-12-21T14:48:35.865Z,16.37
2017-12-21T14:51:03.319Z,13.93
2017-12-21T14:53:30.760Z,16.40
2017-12-21T14:55:58.236Z,17.57
2017-12-21T14:58:25.649Z,12.77
2017-12-21T15:00:53.114Z,14.10
2017-12-21T15:03:20.549Z,13.53
2017-12-21T15:05:47.968Z,15.43
2017-12-21T15:08:15.432Z,15.87
2017-12-21T15:10:42.850Z,15.33
2017-12-21T15:13:10.273Z,15.90
2017-12-21T15:15:37.717Z,17.30
2017-12-21T15:18:05.127Z,17.53
2017-12-21T15:20:32.547Z,16.20
2017-12-21T15:23:00.014Z,17.10
2017-12-21T15:25:27.434Z,16.47
2017-12-21T15:27:54.853Z,18.53
2017-12-21T15:30:22.365Z,16.80
2017-12-21T15:32:49.780Z,22.17
2017-12-21T15:35:18.125Z,15.80
2017-12-21T15:37:45.577Z,24.33
2017-12-21T15:40:12.998Z,18.03
2017-12-21T15:42:40.441Z,18.93
2017-12-21T15:45:07.892Z,20.10
2017-12-21T15:47:35.318Z,16.07
2017-12-21T15:50:02.737Z,13.30
2017-12-21T15:52:30.198Z,18.47
2017-12-21T15:54:57.617Z,14.67
2017-12-21T15:57:25.045Z,20.50
2017-12-21T15:59:52.485Z,15.77
2017-12-21T16:02:19.908Z,17.67
2017-12-21T16:04:47.439Z,16.70
2017-12-21T16:07:14.893Z,12.80
2017-12-21T16:09:42.313Z,15.80
2017-12-21T16:12:09.736Z,18.60
2017-12-21T16:14:37.271Z,21.87
2017-12-21T16:17:04.687Z,17.67
2017-12-21T16:19:32.104Z,16.53
2017-12-21T16:21:59.556Z,15.20
2017-12-21T16:24:26.960Z,16.97
2017-12-21T16:26:54.367Z,17.97
2017-12-21T16:29:21.911Z,15.73
2017-12-21T16:31:49.342Z,17.40
2017-12-21T16:34:16.748Z,23.03
2017-12-21T16:36:44.496Z,17.07
2017-12-21T16:39:11.900Z,12.10
2017-12-21T16:41:39.315Z,22.47
2017-12-21T16:44:06.764Z,23.70
2017-12-21T16:46:34.208Z,14.47
2017-12-21T16:49:01.656Z,19.93
2017-12-21T16:51:29.079Z,13.63
2017-12-21T16:53:56.485Z,16.80
2017-12-21T16:56:23.930Z,13.60
2017-12-21T16:58:51.336Z,16.93
2017-12-21T17:01:19.932Z,22.57
2017-12-21T17:03:47.357Z,28.07
2017-12-21T17:06:14.796Z,29.47
2017-12-21T17:08:42.240Z,20.80
2017-12-21T17:11:09.671Z,23.93
2017-12-21T17:13:37.164Z,19.30
2017-12-21T17:16:04.604Z,23.13
2017-12-21T17:18:32.058Z,26.57
2017-12-21T17:20:59.464Z,23.23
2017-12-21T17:23:26.992Z,16.07
2017-12-21T17:25:54.414Z,21.53
2017-12-21T17:28:21.825Z,17.93
2017-12-21T17:30:49.256Z,25.33
2017-12-21T17:33:16.668Z,12.93
2017-12-21T17:35:44.087Z,25.70
2017-12-21T17:38:11.528Z,22.80
2017-12-21T17:40:38.939Z,23.27
2017-12-21T17:43:06.372Z,18.37
2017-12-21T17:45:33.851Z,23.93
2017-12-21T17:48:01.269Z,20.47
2017-12-21T17:50:28.698Z,20.77
2017-12-21T17:52:56.150Z,16.43
2017-12-21T17:55:23.581Z,16.67
2017-12-21T17:57:51.004Z,16.57
2017-12-21T18:00:18.480Z,15.97
2017-12-21T18:02:45.919Z,19.17
2017-12-21T18:05:13.336Z,15.10
2017-12-21T18:07:40.778Z,15.83
2017-12-21T18:10:08.196Z,21.63
2017-12-21T18:12:35.649Z,16.77
2017-12-21T18:15:03.069Z,27.40
2017-12-21T18:17:30.514Z,15.20
2017-12-21T18:19:57.970Z,26.07
2017-12-21T18:22:25.411Z,15.97
2017-12-21T18:24:52.837Z,20.47
2017-12-21T18:29:54.148Z,20.97
2017-12-21T18:32:21.605Z,22.33
2017-12-21T18:34:49.770Z,15.87
2017-12-21T18:37:17.195Z,16.43
2017-12-21T18:39:44.670Z,24.43
2017-12-21T18:42:12.100Z,17.80
2017-12-21T18:44:39.530Z,18.23
2017-12-21T18:47:07.001Z,16.30
2017-12-21T18:49:34.416Z,15.93
2017-12-21T18:52:01.882Z,19.60
2017-12-21T18:54:32.210Z,21.80
2017-12-21T18:56:59.650Z,20.67
2017-12-21T18:59:27.059Z,17.03
2017-12-21T19:01:54.495Z,20.10
2017-12-21T19:04:21.921Z,20.40
2017-12-21T19:06:49.335Z,16.10
2017-12-21T19:09:16.782Z,21.10
2017-12-21T19:11:44.236Z,17.77
2017-12-21T19:14:12.081Z,23.80
2017-12-21T19:16:39.642Z,20.37
2017-12-21T19:19:07.061Z,22.87
2017-12-21T19:21:34.646Z,25.03
2017-12-21T19:24:02.073Z,34.53
2017-12-21T19:26:29.491Z,27.53
2017-12-21T19:28:56.908Z,23.13
2017-12-21T19:31:24.351Z,28.67
2017-12-21T19:33:51.766Z,20.83
2017-12-21T19:36:19.252Z,19.43
2017-12-21T19:38:46.784Z,24.30
2017-12-21T19:41:14.216Z,21.43
2017-12-21T19:43:41.768Z,23.63
2017-12-21T19:46:09.200Z,18.50
2017-12-21T19:48:36.623Z,21.07
2017-12-21T19:51:04.039Z,16.47
2017-12-21T19:53:31.478Z,24.23
2017-12-21T19:55:58.967Z,17.00
2017-12-21T19:58:26.382Z,13.27
2017-12-21T20:00:53.884Z,18.53
2017-12-21T20:03:21.297Z,23.37
2017-12-21T20:05:48.758Z,43.03
2017-12-21T20:08:16.218Z,25.73
2017-12-21T20:10:43.644Z,27.43
2017-12-21T20:13:11.074Z,20.93
2017-12-21T20:15:38.523Z,19.43
2017-12-21T20:18:05.944Z,23.27
2017-12-21T20:20:33.398Z,35.80
2017-12-21T20:23:00.799Z,25.33
2017-12-21T20:25:28.249Z,35.73
2017-12-21T20:27:55.689Z,39.70
2017-12-21T20:30:23.148Z,33.13
2017-12-21T20:32:50.594Z,45.23
2017-12-21T20:35:18.046Z,34.67
2017-12-21T20:37:45.472Z,23.70
2017-12-21T20:40:12.908Z,30.10
2017-12-21T20:42:40.351Z,22.83
2017-12-21T20:45:07.808Z,33.20
2017-12-21T20:47:35.244Z,28.00
2017-12-21T20:50:02.684Z,45.93
2017-12-21T20:52:30.125Z,25.20
2017-12-21T20:54:57.561Z,35.83
2017-12-21T20:57:25.042Z,28.13
2017-12-21T20:59:52.451Z,24.40
2017-12-21T21:02:19.870Z,29.37
2017-12-21T21:04:47.466Z,40.13
2017-12-21T21:07:14.914Z,32.23
2017-12-21T21:09:42.764Z,37.40
2017-12-21T21:12:10.252Z,42.50
2017-12-21T21:14:37.673Z,41.00
2017-12-21T21:17:05.094Z,43.17
2017-12-21T21:19:32.548Z,54.67
2017-12-21T21:21:59.985Z,36.00
2017-12-21T21:24:27.440Z,48.60
2017-12-21T21:26:54.884Z,38.00
2017-12-21T21:29:22.292Z,44.07
2017-12-21T21:31:49.703Z,37.33
2017-12-21T21:34:17.165Z,43.33
2017-12-21T21:36:44.595Z,33.70
2017-12-21T21:39:12.000Z,52.17
2017-12-21T21:41:39.451Z,60.80
2017-12-21T21:44:06.867Z,40.83
2017-12-21T21:46:34.285Z,33.23
2017-12-21T21:49:01.800Z,50.67
2017-12-21T21:51:29.215Z,43.03
2017-12-21T21:53:56.717Z,38.30
2017-12-21T21:56:24.172Z,38.30
2017-12-21T21:58:51.614Z,45.33
2017-12-21T22:01:19.040Z,66.80
2017-12-21T22:03:46.456Z,46.67
2017-12-21T22:06:13.877Z,38.77
2017-12-21T22:08:41.318Z,36.47
2017-12-21T22:11:08.724Z,49.77
2017-12-21T22:13:36.151Z,55.93
2017-12-21T22:16:03.603Z,46.93
2017-12-21T22:18:31.018Z,42.77
2017-12-21T22:20:58.437Z,45.47
2017-12-21T22:23:25.892Z,57.83
2017-12-21T22:25:53.308Z,52.33
2017-12-21T22:28:20.728Z,42.70
2017-12-21T22:30:48.263Z,59.20
2017-12-21T22:33:15.709Z,54.67
2017-12-21T22:35:43.136Z,41.27
2017-12-21T22:38:10.576Z,46.30
2017-12-21T22:40:37.992Z,38.90
2017-12-21T22:43:05.403Z,50.30
2017-12-21T22:45:32.851Z,59.40
2017-12-21T22:48:00.265Z,39.90
2017-12-21T22:50:27.723Z,47.20
2017-12-21T22:52:55.288Z,47.17
2017-12-21T22:55:22.704Z,64.50
2017-12-21T22:57:50.128Z,39.20
2017-12-21T23:00:24.552Z,48.60
2017-12-21T23:02:51.974Z,34.70
2017-12-21T23:05:19.389Z,40.80
2017-12-21T23:07:46.851Z,46.93
2017-12-21T23:10:14.284Z,46.30
2017-12-21T23:12:41.696Z,35.17
2017-12-21T23:15:09.136Z,48.40
2017-12-21T23:17:36.545Z,38.10
2017-12-21T23:20:03.951Z,39.07
2017-12-21T23:22:31.398Z,34.87
2017-12-21T23:24:58.811Z,41.60
2017-12-21T23:27:26.240Z,34.03
2017-12-21T23:29:53.684Z,36.40
2017-12-21T23:32:21.107Z,24.13
2017-12-21T23:34:48.532Z,28.60
2017-12-21T23:37:15.987Z,27.90
2017-12-21T23:39:43.392Z,25.13
2017-12-21T23:42:10.813Z,31.00
2017-12-21T23:44:38.268Z,34.93
2017-12-21T23:47:05.688Z,27.20
2017-12-21T23:49:33.104Z,36.00
2017-12-21T23:52:00.523Z,30.70
2017-12-21T23:54:27.962Z,26.80
2017-12-21T23:56:55.393Z,32.10
2017-12-21T23:59:22.821Z,31.97
